createdAt,value
2019-01-15T00:00:25.615Z,0.70
2019-01-15T00:02:54.201Z,0.70
2019-01-15T00:05:22.853Z,0.70
2019-01-15T00:07:51.403Z,0.70
2019-01-15T00:10:20.099Z,0.80
2019-01-15T00:12:48.571Z,0.80
2019-01-15T00:15:17.052Z,0.80
2019-01-15T00:17:45.525Z,0.70
2019-01-15T00:20:15.875Z,0.70
2019-01-15T00:22:44.484Z,0.70
2019-01-15T00:25:13.427Z,0.70
2019-01-15T00:27:41.960Z,0.80
2019-01-15T00:30:15.962Z,0.70
2019-01-15T00:32:44.433Z,0.70
2019-01-15T00:35:13.444Z,0.70
2019-01-15T00:37:41.927Z,0.70
2019-01-15T00:40:13.532Z,0.70
2019-01-15T00:42:42.164Z,0.70
2019-01-15T00:45:12.022Z,0.70
2019-01-15T00:47:41.101Z,0.70
2019-01-15T00:50:12.938Z,0.70
2019-01-15T00:52:41.494Z,0.80
2019-01-15T00:55:12.045Z,0.80
2019-01-15T00:57:40.876Z,0.80
2019-01-15T01:00:12.511Z,0.70
2019-01-15T01:02:41.064Z,0.70
2019-01-15T01:05:09.673Z,0.70
2019-01-15T01:07:38.562Z,0.70
2019-01-15T01:10:10.073Z,0.70
2019-01-15T01:12:38.594Z,0.60
2019-01-15T01:15:12.892Z,0.60
2019-01-15T01:17:41.555Z,0.60
2019-01-15T01:20:16.036Z,0.80
2019-01-15T01:22:44.609Z,0.70
2019-01-15T01:25:14.122Z,0.60
2019-01-15T01:27:42.674Z,0.60
2019-01-15T01:30:17.406Z,0.60
2019-01-15T01:32:45.940Z,0.70
2019-01-15T01:35:14.508Z,0.60
2019-01-15T01:37:43.113Z,0.70
2019-01-15T01:40:14.318Z,0.70
2019-01-15T01:42:42.916Z,0.70
2019-01-15T01:45:13.352Z,0.70
2019-01-15T01:47:41.898Z,0.70
2019-01-15T01:50:12.215Z,0.70
2019-01-15T01:52:41.156Z,0.60
2019-01-15T01:55:12.248Z,0.60
2019-01-15T01:57:40.804Z,0.60
2019-01-15T02:00:12.641Z,0.60
2019-01-15T02:02:41.244Z,0.70
2019-01-15T02:05:10.082Z,0.70
2019-01-15T02:07:38.731Z,0.70
2019-01-15T02:10:10.325Z,0.70
2019-01-15T02:12:38.974Z,0.60
2019-01-15T02:15:10.686Z,0.60
2019-01-15T02:17:39.324Z,0.50
2019-01-15T02:20:10.934Z,0.50
2019-01-15T02:22:39.469Z,0.50
2019-01-15T02:25:09.215Z,0.40
2019-01-15T02:32:36.912Z,0.60
2019-01-15T02:35:06.476Z,0.60
2019-01-15T02:37:35.081Z,0.70
2019-01-15T02:40:05.583Z,0.70
2019-01-15T02:42:34.039Z,0.50
2019-01-15T02:45:02.876Z,0.50
2019-01-15T02:47:31.656Z,0.30
2019-01-15T02:50:00.189Z,0.40
2019-01-15T02:52:28.696Z,0.40
2019-01-15T02:54:57.232Z,0.50
2019-01-15T02:57:25.704Z,0.50
2019-01-15T02:59:54.226Z,0.50
2019-01-15T03:02:22.703Z,0.60
2019-01-15T03:04:51.164Z,0.60
2019-01-15T03:07:19.725Z,0.40
2019-01-15T03:09:48.191Z,0.40
2019-01-15T03:12:16.964Z,0.50
2019-01-15T03:14:45.511Z,0.40
2019-01-15T03:17:14.080Z,0.50
2019-01-15T03:19:42.587Z,0.60
2019-01-15T03:22:11.049Z,0.50
2019-01-15T03:24:39.880Z,0.50
2019-01-15T03:27:08.426Z,0.50
2019-01-15T03:29:36.988Z,0.40
2019-01-15T03:32:05.533Z,0.40
2019-01-15T03:34:34.027Z,0.50
2019-01-15T03:37:02.492Z,0.50
2019-01-15T03:39:30.988Z,0.50
2019-01-15T03:41:59.465Z,0.50
2019-01-15T03:46:56.161Z,0.50
2019-01-15T03:49:24.637Z,0.40
2019-01-15T03:51:53.141Z,0.50
2019-01-15T03:54:21.682Z,0.40
2019-01-15T03:56:50.190Z,0.50
2019-01-15T03:59:18.720Z,0.50
2019-01-15T04:01:47.271Z,0.50
2019-01-15T04:04:15.765Z,0.50
2019-01-15T04:06:44.257Z,0.40
2019-01-15T04:09:12.734Z,0.40
2019-01-15T04:11:41.218Z,0.40
2019-01-15T04:14:09.698Z,0.40
2019-01-15T04:16:38.177Z,0.40
2019-01-15T04:19:06.725Z,0.50
2019-01-15T04:21:35.280Z,0.40
2019-01-15T04:24:04.192Z,0.40
2019-01-15T04:26:32.695Z,0.50
2019-01-15T04:29:01.242Z,0.50
2019-01-15T04:31:29.759Z,0.50
2019-01-15T04:33:58.259Z,0.50
2019-01-15T04:36:26.734Z,0.50
2019-01-15T04:38:55.228Z,0.50
2019-01-15T04:41:23.687Z,0.40
2019-01-15T04:43:52.164Z,0.50
2019-01-15T04:46:20.645Z,0.50
2019-01-15T04:48:49.142Z,0.50
2019-01-15T04:51:17.605Z,0.40
2019-01-15T04:53:46.108Z,0.50
2019-01-15T04:56:14.627Z,0.40
2019-01-15T04:58:43.111Z,0.40
2019-01-15T05:01:11.895Z,0.40
2019-01-15T05:03:40.691Z,0.40
2019-01-15T05:06:09.244Z,0.30
2019-01-15T05:08:37.730Z,0.50
2019-01-15T05:11:06.319Z,0.50
2019-01-15T05:13:34.819Z,0.50
2019-01-15T05:16:03.296Z,0.50
2019-01-15T05:18:31.750Z,0.50
2019-01-15T05:21:00.551Z,0.40
2019-01-15T05:23:29.039Z,0.50
2019-01-15T05:25:57.516Z,0.40
2019-01-15T05:28:26.006Z,0.40
2019-01-15T05:30:54.464Z,0.40
2019-01-15T05:33:23.273Z,0.40
2019-01-15T05:35:51.810Z,0.50
2019-01-15T05:38:20.277Z,0.50
2019-01-15T05:40:48.765Z,0.40
2019-01-15T05:43:17.229Z,0.50
2019-01-15T05:45:46.685Z,0.50
2019-01-15T05:48:16.620Z,0.50
2019-01-15T05:50:49.794Z,0.50
2019-01-15T05:53:18.301Z,0.50
2019-01-15T05:55:47.167Z,0.50
2019-01-15T05:58:15.632Z,0.50
2019-01-15T06:00:44.120Z,0.50
2019-01-15T06:03:12.589Z,0.40
2019-01-15T06:05:41.094Z,0.50
2019-01-15T06:08:09.571Z,0.40
2019-01-15T06:10:38.040Z,0.40
2019-01-15T06:13:06.985Z,0.30
2019-01-15T06:15:35.545Z,0.30
2019-01-15T06:18:04.805Z,0.40
2019-01-15T06:20:33.370Z,0.40
2019-01-15T06:23:01.827Z,0.40
2019-01-15T06:25:30.662Z,0.40
2019-01-15T06:27:59.202Z,0.40
2019-01-15T06:30:27.759Z,0.40
2019-01-15T06:32:56.296Z,0.40
2019-01-15T06:35:24.765Z,0.30
2019-01-15T06:37:53.327Z,0.40
2019-01-15T06:40:22.356Z,0.40
2019-01-15T06:42:50.821Z,0.40
2019-01-15T06:45:27.645Z,0.40
2019-01-15T06:47:56.225Z,0.30
2019-01-15T06:50:24.852Z,0.40
2019-01-15T06:52:53.311Z,0.40
2019-01-15T06:55:23.359Z,0.40
2019-01-15T06:57:51.903Z,0.40
2019-01-15T07:00:23.201Z,0.40
2019-01-15T07:02:51.762Z,0.40
2019-01-15T07:05:20.297Z,0.40
2019-01-15T07:07:49.103Z,0.40
2019-01-15T07:10:23.442Z,0.40
2019-01-15T07:12:52.254Z,0.30
2019-01-15T07:15:20.809Z,0.30
2019-01-15T07:17:49.268Z,0.30
2019-01-15T07:20:17.824Z,0.30
2019-01-15T07:22:46.390Z,0.40
2019-01-15T07:25:18.134Z,0.40
2019-01-15T07:27:46.761Z,0.40
2019-01-15T07:30:24.619Z,0.40
2019-01-15T07:32:53.089Z,0.40
2019-01-15T07:35:21.712Z,0.40
2019-01-15T07:37:50.263Z,0.40
2019-01-15T07:40:18.760Z,0.30
2019-01-15T07:42:47.300Z,0.30
2019-01-15T07:45:15.908Z,0.30
2019-01-15T07:47:44.413Z,0.20
2019-01-15T07:50:15.794Z,0.30
2019-01-15T07:52:44.411Z,0.30
2019-01-15T07:55:15.555Z,0.20
2019-01-15T07:57:44.119Z,0.30
2019-01-15T08:00:15.664Z,0.30
2019-01-15T08:02:44.288Z,0.30
2019-01-15T08:05:15.596Z,0.30
2019-01-15T08:07:44.245Z,0.30
2019-01-15T08:10:15.322Z,0.30
2019-01-15T08:12:44.226Z,0.30
2019-01-15T08:17:42.420Z,0.30
2019-01-15T08:20:13.381Z,0.20
2019-01-15T08:22:42.265Z,0.30
2019-01-15T08:25:13.276Z,0.40
2019-01-15T08:30:23.531Z,0.30
2019-01-15T08:32:52.135Z,0.30
2019-01-15T08:35:20.778Z,0.40
2019-01-15T08:37:49.235Z,0.20
2019-01-15T08:42:46.436Z,0.40
2019-01-15T08:47:55.598Z,0.30
2019-01-15T08:52:53.680Z,0.40
2019-01-15T08:57:50.450Z,0.40
2019-01-15T09:02:47.560Z,0.40
2019-01-15T09:05:16.095Z,0.40
2019-01-15T09:07:44.578Z,0.50
2019-01-15T09:10:15.956Z,0.50
2019-01-15T09:12:45.072Z,0.50
2019-01-15T09:15:16.220Z,0.50
2019-01-15T09:17:44.849Z,0.50
2019-01-15T09:20:15.735Z,0.40
2019-01-15T09:22:44.439Z,0.40
2019-01-15T09:25:13.034Z,0.40
2019-01-15T09:27:41.598Z,0.40
2019-01-15T09:30:18.858Z,0.40
2019-01-15T09:32:47.853Z,0.40
2019-01-15T09:35:16.464Z,0.40
2019-01-15T09:37:46.653Z,0.40
2019-01-15T09:40:17.724Z,0.50
2019-01-15T09:50:19.950Z,0.40
2019-01-15T09:52:48.906Z,0.50
2019-01-15T09:57:45.543Z,0.60
2019-01-15T10:00:16.952Z,0.60
2019-01-15T10:02:45.890Z,0.60
2019-01-15T10:05:14.472Z,0.60
2019-01-15T10:07:43.174Z,0.60
2019-01-15T10:10:14.152Z,0.70
2019-01-15T10:15:14.641Z,0.70
2019-01-15T10:20:13.313Z,0.70
2019-01-15T10:22:41.928Z,0.70
2019-01-15T10:25:12.264Z,0.80
2019-01-15T10:30:17.136Z,0.80
2019-01-15T10:33:03.136Z,0.70
2019-01-15T10:35:34.687Z,0.80
2019-01-15T10:38:03.165Z,0.70
2019-01-15T10:40:31.682Z,0.80
2019-01-15T10:45:28.547Z,0.80
2019-01-15T10:50:26.499Z,0.80
2019-01-15T11:02:48.189Z,0.80
2019-01-15T11:17:39.955Z,0.90
2019-01-15T11:20:14.279Z,0.80
2019-01-15T11:25:11.442Z,0.90
2019-01-15T11:32:38.118Z,0.90
2019-01-15T11:45:03.463Z,1.00
2019-01-15T11:50:00.509Z,1.20
2019-01-15T11:52:29.174Z,1.20
2019-01-15T11:54:57.735Z,1.20
2019-01-15T12:12:58.389Z,1.50
2019-01-15T12:18:03.621Z,1.30
2019-01-15T12:25:44.912Z,1.50
2019-01-15T12:28:18.091Z,1.60
2019-01-15T12:41:24.479Z,1.60
2019-01-15T12:57:28.595Z,1.70
2019-01-15T13:13:32.817Z,1.70
2019-01-15T13:19:08.971Z,1.70
2019-01-15T13:34:25.931Z,1.70
2019-01-15T13:39:35.082Z,1.70
2019-01-15T13:42:05.341Z,1.70
2019-01-15T13:47:19.811Z,1.70
2019-01-15T13:52:22.403Z,1.80
2019-01-15T13:54:52.874Z,1.70
2019-01-15T13:57:23.089Z,1.80
2019-01-15T14:00:02.562Z,1.70
2019-01-15T14:02:38.568Z,1.70
2019-01-15T14:05:21.525Z,1.70
2019-01-15T14:08:00.838Z,1.70
2019-01-15T14:13:06.732Z,1.70
2019-01-15T14:15:39.510Z,1.70
2019-01-15T14:18:15.912Z,1.60
2019-01-15T14:23:21.618Z,1.50
2019-01-15T14:25:54.912Z,1.60
2019-01-15T14:28:34.303Z,1.60
2019-01-15T14:36:40.556Z,1.60
2019-01-15T14:41:47.449Z,1.60
2019-01-15T14:44:29.714Z,1.60
2019-01-15T14:47:03.149Z,1.50
2019-01-15T14:49:33.411Z,1.50
2019-01-15T14:52:06.638Z,1.50
2019-01-15T14:57:23.070Z,1.60
2019-01-15T14:59:53.299Z,1.60
2019-01-15T15:05:23.148Z,1.60
2019-01-15T15:10:38.272Z,1.60
2019-01-15T15:13:14.030Z,1.50
2019-01-15T15:16:03.702Z,1.50
2019-01-15T15:18:35.292Z,1.50
2019-01-15T15:21:08.192Z,1.60
2019-01-15T15:23:51.075Z,1.50
2019-01-15T15:26:39.778Z,1.50
2019-01-15T15:29:19.046Z,1.50
2019-01-15T15:32:04.411Z,1.50
2019-01-15T15:37:04.442Z,1.50
2019-01-15T15:39:37.319Z,1.40
2019-01-15T15:42:26.485Z,1.50
2019-01-15T15:45:12.875Z,1.50
2019-01-15T15:47:55.386Z,1.50
2019-01-15T15:50:25.837Z,1.50
2019-01-15T15:52:58.758Z,1.50
2019-01-15T15:55:44.834Z,1.50
2019-01-15T15:58:14.945Z,1.50
2019-01-15T16:00:45.057Z,1.50
2019-01-15T16:03:15.478Z,1.50
2019-01-15T16:05:55.016Z,1.50
2019-01-15T16:08:37.281Z,1.50
2019-01-15T16:11:23.904Z,1.50
2019-01-15T16:13:54.087Z,1.50
2019-01-15T16:16:30.044Z,1.40
2019-01-15T16:19:02.908Z,1.50
2019-01-15T16:21:33.030Z,1.50
2019-01-15T16:24:18.443Z,1.50
2019-01-15T16:26:51.369Z,1.50
2019-01-15T16:29:21.480Z,1.50
2019-01-15T16:31:51.917Z,1.50
2019-01-15T16:34:22.080Z,1.50
2019-01-15T16:37:09.130Z,1.50
2019-01-15T16:39:39.270Z,1.50
2019-01-15T16:42:25.677Z,1.50
2019-01-15T16:45:12.108Z,1.50
2019-01-15T16:50:18.130Z,1.50
2019-01-15T16:52:48.255Z,0.80
2019-01-15T16:55:27.386Z,1.50
2019-01-15T17:00:48.168Z,1.50
2019-01-15T17:03:18.278Z,1.50
2019-01-15T17:05:48.411Z,1.50
2019-01-15T17:11:03.403Z,1.50
2019-01-15T17:13:49.984Z,1.50
2019-01-15T17:16:20.191Z,1.50
2019-01-15T17:18:59.338Z,1.40
2019-01-15T17:24:05.379Z,1.40
2019-01-15T17:29:26.406Z,1.50
2019-01-15T17:32:12.535Z,1.50
2019-01-15T17:34:45.449Z,1.50
2019-01-15T17:40:03.570Z,1.50
2019-01-15T18:06:37.633Z,1.40
2019-01-15T18:22:44.721Z,1.40
2019-01-15T18:25:26.636Z,1.50
2019-01-15T18:28:12.316Z,1.50
2019-01-15T18:38:37.183Z,1.40
2019-01-15T18:41:10.201Z,1.50
2019-01-15T18:48:51.938Z,1.50
2019-01-15T18:53:52.061Z,1.50
2019-01-15T18:56:24.852Z,1.50
2019-01-15T19:12:18.632Z,1.40
2019-01-15T19:14:54.277Z,1.50
2019-01-15T19:20:15.432Z,1.50
2019-01-15T19:30:19.658Z,1.40
2019-01-15T19:35:39.282Z,1.40
2019-01-15T19:38:25.591Z,1.50
2019-01-15T19:43:44.583Z,1.50
2019-01-15T19:46:30.877Z,1.50
2019-01-15T19:49:17.404Z,1.60
2019-01-15T19:54:42.766Z,1.50
2019-01-15T19:57:15.442Z,1.50
2019-01-15T20:02:21.291Z,1.50
2019-01-15T20:04:51.464Z,1.50
2019-01-15T20:07:27.635Z,1.50
2019-01-15T20:12:45.651Z,1.50
2019-01-15T20:15:18.834Z,1.50
2019-01-15T20:18:07.274Z,1.50
2019-01-15T20:20:43.331Z,1.50
2019-01-15T20:23:16.504Z,1.50
2019-01-15T20:26:02.966Z,1.50
2019-01-15T20:36:17.516Z,1.60
2019-01-15T20:38:50.655Z,1.50
2019-01-15T20:46:39.537Z,1.50
2019-01-15T20:49:27.519Z,1.50
2019-01-15T20:51:57.947Z,1.50
2019-01-15T20:54:34.246Z,1.50
2019-01-15T20:57:20.630Z,1.50
2019-01-15T21:10:21.857Z,1.60
2019-01-15T21:12:58.082Z,1.60
2019-01-15T21:15:44.326Z,1.50
2019-01-15T21:18:20.507Z,1.60
2019-01-15T21:20:50.607Z,1.60
2019-01-15T21:23:33.052Z,1.50
2019-01-15T21:29:04.557Z,1.50
2019-01-15T21:34:37.440Z,1.50
2019-01-15T21:39:49.194Z,1.50
2019-01-15T21:45:11.303Z,1.50
2019-01-15T21:50:35.332Z,1.50
2019-01-15T21:55:54.131Z,1.40
2019-01-15T21:58:29.972Z,1.50
2019-01-15T22:01:15.153Z,1.50
2019-01-15T22:03:48.173Z,1.50
2019-01-15T22:14:12.440Z,1.50
2019-01-15T22:16:45.537Z,1.50
2019-01-15T22:19:18.644Z,1.50
2019-01-15T22:21:51.742Z,1.50
2019-01-15T22:24:30.909Z,1.40
2019-01-15T22:27:01.305Z,1.50
2019-01-15T22:29:47.805Z,1.50
2019-01-15T22:37:32.225Z,1.50
2019-01-15T22:45:22.771Z,1.50
2019-01-15T22:50:24.640Z,1.50
2019-01-15T22:55:42.822Z,1.60
2019-01-15T23:03:49.758Z,1.50
2019-01-15T23:09:12.043Z,1.50
2019-01-15T23:11:42.161Z,1.40
2019-01-15T23:14:21.480Z,1.50
2019-01-15T23:17:01.043Z,1.50
2019-01-15T23:27:18.355Z,1.40
2019-01-15T23:29:57.627Z,1.50
2019-01-15T23:40:12.622Z,1.50
2019-01-15T23:42:51.595Z,1.50
2019-01-15T23:50:39.752Z,1.50
2019-01-15T23:55:57.346Z,1.40
